Time;durP1;ratioP1;P1;durP2;ratioP2;P2;SDS_P1;SDS_P2;PMS_P1;PMS_P2;Temp;Humidity;BMP_temperature;BMP_pressure;BME280_temperature;BME280_humidity;BME280_pressure;Samples;Min_cycle;Max_cycle;Signal;HPM_P1;HPM_P2
2021/09/26 00:02:06;;;;;;;23.17;17.37;;;17.00;99.90;;;;;;5059222;28;20472;-72
2021/09/26 00:04:32;;;;;;;21.53;18.30;;;17.00;99.90;;;;;;5058279;28;20487;-71
2021/09/26 00:06:59;;;;;;;18.80;16.90;;;16.90;99.90;;;;;;5058336;28;20489;-72
2021/09/26 00:09:28;;;;;;;21.00;18.87;;;16.90;99.90;;;;;;5058346;28;20455;-72
2021/09/26 00:11:55;;;;;;;22.00;18.37;;;16.90;99.90;;;;;;5058922;28;20460;-71
2021/09/26 00:14:22;;;;;;;19.60;17.50;;;16.90;99.90;;;;;;5058703;28;20789;-71
2021/09/26 00:16:54;;;;;;;22.97;18.33;;;16.90;99.90;;;;;;5058729;28;20830;-71
2021/09/26 00:19:21;;;;;;;20.87;17.40;;;16.90;99.90;;;;;;5059431;28;20443;-72
2021/09/26 00:21:49;;;;;;;21.87;18.00;;;16.80;99.90;;;;;;5058296;28;20775;-72
2021/09/26 00:24:17;;;;;;;20.80;18.70;;;16.80;99.90;;;;;;5058260;28;20525;-72
2021/09/26 00:26:45;;;;;;;21.57;17.67;;;16.80;99.90;;;;;;5058002;28;20889;-72
2021/09/26 00:29:12;;;;;;;21.97;19.13;;;16.80;99.90;;;;;;5057793;28;20460;-71
2021/09/26 00:31:38;;;;;;;24.27;18.87;;;16.90;99.90;;;;;;5057777;28;20501;-70
2021/09/26 00:34:05;;;;;;;23.23;18.17;;;16.90;99.90;;;;;;5057816;28;20459;-72
2021/09/26 00:36:32;;;;;;;23.10;19.73;;;16.90;99.90;;;;;;5057376;28;20463;-70
2021/09/26 00:38:58;;;;;;;22.10;19.13;;;16.90;99.90;;;;;;5057814;28;20464;-70
2021/09/26 00:41:25;;;;;;;21.93;19.03;;;16.90;99.90;;;;;;5058404;28;20463;-72
2021/09/26 00:43:53;;;;;;;22.80;19.60;;;16.90;99.90;;;;;;5058364;28;20463;-70
2021/09/26 00:46:20;;;;;;;23.17;19.53;;;17.00;99.90;;;;;;5058310;28;20463;-70
2021/09/26 00:48:46;;;;;;;22.80;20.40;;;16.90;99.90;;;;;;5058271;28;20464;-70
2021/09/26 00:51:13;;;;;;;20.90;18.60;;;16.90;99.90;;;;;;5058347;28;20467;-70
2021/09/26 00:53:46;;;;;;;27.13;19.77;;;16.90;99.90;;;;;;5057012;28;20805;-70
2021/09/26 00:56:14;;;;;;;24.73;20.97;;;16.90;99.90;;;;;;5057853;28;20459;-69
2021/09/26 00:58:41;;;;;;;22.40;20.10;;;16.90;99.90;;;;;;5058051;28;20455;-69
2021/09/26 01:01:12;;;;;;;22.53;20.10;;;16.90;99.90;;;;;;5057525;28;20466;-70
2021/09/26 01:03:39;;;;;;;26.63;20.50;;;16.80;99.90;;;;;;5057761;28;20463;-70
2021/09/26 01:06:17;;;;;;;23.50;20.47;;;16.90;99.90;;;;;;5057548;28;20471;-70
2021/09/26 01:08:57;;;;;;;24.30;21.37;;;16.90;99.90;;;;;;5057973;28;20452;-70
2021/09/26 01:11:35;;;;;;;24.03;20.30;;;16.90;99.90;;;;;;5058033;28;20447;-72
2021/09/26 01:14:10;;;;;;;22.17;19.80;;;17.00;99.90;;;;;;5057883;28;20454;-70
2021/09/26 01:16:43;;;;;;;23.87;19.97;;;17.00;99.90;;;;;;5057347;28;20601;-70
2021/09/26 01:19:30;;;;;;;23.17;20.30;;;17.00;99.90;;;;;;5057243;28;20541;-70
2021/09/26 01:22:00;;;;;;;21.90;19.50;;;17.10;99.90;;;;;;5057209;28;20451;-70
2021/09/26 01:25:03;;;;;;;22.20;19.73;;;17.10;99.90;;;;;;5057407;28;20491;-72
2021/09/26 01:27:50;;;;;;;25.13;19.93;;;17.10;99.90;;;;;;5057478;28;20452;-70
2021/09/26 01:30:25;;;;;;;26.60;20.57;;;17.10;99.90;;;;;;5057156;28;20486;-71
2021/09/26 01:32:59;;;;;;;23.23;19.07;;;17.10;99.90;;;;;;5056854;28;20457;-71
2021/09/26 01:35:27;;;;;;;21.40;19.20;;;17.10;99.90;;;;;;5057350;28;20451;-71
2021/09/26 01:38:07;;;;;;;23.70;19.43;;;17.10;99.90;;;;;;5056669;28;20467;-71
2021/09/26 01:40:42;;;;;;;22.33;18.43;;;17.10;99.90;;;;;;5056621;28;20942;-71
2021/09/26 01:43:14;;;;;;;20.57;18.37;;;17.10;99.90;;;;;;5056600;28;20816;-71
2021/09/26 01:45:46;;;;;;;24.40;18.97;;;17.10;99.90;;;;;;5056412;28;20511;-71
2021/09/26 01:48:16;;;;;;;21.73;19.43;;;17.10;99.90;;;;;;5055642;28;20440;-71
2021/09/26 01:50:44;;;;;;;21.77;19.13;;;17.10;99.90;;;;;;5056555;28;20456;-71
2021/09/26 01:53:13;;;;;;;21.60;19.13;;;17.20;99.90;;;;;;5056582;28;20771;-71
2021/09/26 01:55:41;;;;;;;21.87;18.17;;;17.20;99.90;;;;;;5056493;28;20459;-71
2021/09/26 01:58:08;;;;;;;20.83;18.63;;;17.20;99.90;;;;;;5056500;28;20456;-71
2021/09/26 02:00:39;;;;;;;20.17;17.97;;;17.20;99.90;;;;;;5058037;28;20781;-71
2021/09/26 02:03:07;;;;;;;19.47;17.47;;;17.20;99.90;;;;;;5058294;28;20454;-72
2021/09/26 02:05:38;;;;;;;19.73;17.70;;;17.20;99.90;;;;;;5057945;28;20484;-72
2021/09/26 02:08:06;;;;;;;20.50;18.37;;;17.20;99.90;;;;;;5059510;28;20441;-72
2021/09/26 02:10:37;;;;;;;22.77;17.90;;;17.20;99.90;;;;;;5060582;28;20456;-71
2021/09/26 02:13:07;;;;;;;19.97;17.97;;;17.10;99.90;;;;;;5060582;28;20466;-70
2021/09/26 02:15:34;;;;;;;19.90;17.83;;;17.10;99.90;;;;;;5060471;28;20554;-71
2021/09/26 02:18:03;;;;;;;20.40;17.93;;;17.10;99.90;;;;;;5060051;28;20465;-71
2021/09/26 02:20:31;;;;;;;18.67;16.67;;;17.20;99.90;;;;;;5060884;28;20471;-71
2021/09/26 02:23:01;;;;;;;22.60;17.93;;;17.20;99.90;;;;;;5061957;28;20455;-71
2021/09/26 02:25:28;;;;;;;18.13;16.30;;;17.20;99.90;;;;;;5061146;28;20480;-71
2021/09/26 02:27:55;;;;;;;18.87;16.73;;;17.20;99.90;;;;;;5056960;28;20455;-71
2021/09/26 02:30:24;;;;;;;20.40;17.50;;;17.20;99.90;;;;;;5057518;28;20460;-71
2021/09/26 02:32:50;;;;;;;21.80;19.60;;;17.20;99.90;;;;;;5056192;28;20452;-72
2021/09/26 02:35:17;;;;;;;21.07;18.07;;;17.20;99.90;;;;;;5057236;28;20459;-71
2021/09/26 02:37:45;;;;;;;20.20;18.00;;;17.20;99.90;;;;;;5057046;28;20455;-71
2021/09/26 02:40:14;;;;;;;19.70;17.40;;;17.20;99.90;;;;;;5056230;28;20513;-71
2021/09/26 02:42:48;;;;;;;19.77;17.70;;;17.30;99.90;;;;;;5056157;28;20875;-71
2021/09/26 02:45:19;;;;;;;19.17;17.27;;;17.30;99.90;;;;;;5055587;28;20476;-71
2021/09/26 02:47:51;;;;;;;23.07;17.87;;;17.30;99.90;;;;;;5056851;28;20477;-71
2021/09/26 02:50:21;;;;;;;19.83;17.53;;;17.30;99.90;;;;;;5056113;28;20473;-71
2021/09/26 02:52:50;;;;;;;20.70;17.53;;;17.30;99.90;;;;;;5055997;28;20464;-71
2021/09/26 02:55:17;;;;;;;19.70;17.70;;;17.30;99.90;;;;;;5055116;28;20456;-71
2021/09/26 02:57:45;;;;;;;19.77;17.77;;;17.30;99.90;;;;;;5055133;28;20866;-71
2021/09/26 03:00:12;;;;;;;20.17;18.07;;;17.30;99.90;;;;;;5055720;28;20463;-71
2021/09/26 03:02:39;;;;;;;18.83;16.87;;;17.30;99.90;;;;;;5055593;28;20566;-71
2021/09/26 03:05:08;;;;;;;18.80;16.97;;;17.30;99.90;;;;;;5055121;28;20479;-71
2021/09/26 03:07:36;;;;;;;19.63;17.47;;;17.30;99.90;;;;;;5055572;28;20455;-71
2021/09/26 03:10:06;;;;;;;19.97;17.63;;;17.30;99.90;;;;;;5055313;28;20789;-71
2021/09/26 03:12:34;;;;;;;19.53;17.50;;;17.30;99.90;;;;;;5055009;28;20474;-71
2021/09/26 03:15:00;;;;;;;18.83;16.83;;;17.30;99.90;;;;;;5055087;28;20479;-71
2021/09/26 03:17:29;;;;;;;18.73;16.63;;;17.30;99.90;;;;;;5055917;28;20451;-71
2021/09/26 03:19:56;;;;;;;19.20;16.90;;;17.30;99.90;;;;;;5055326;28;20464;-70
2021/09/26 03:22:23;;;;;;;18.67;16.77;;;17.30;99.90;;;;;;5055250;28;20467;-71
2021/09/26 03:24:49;;;;;;;19.00;16.37;;;17.30;99.90;;;;;;5054970;28;20469;-70
2021/09/26 03:27:17;;;;;;;18.67;16.97;;;17.30;99.90;;;;;;5055017;28;20916;-71
2021/09/26 03:29:44;;;;;;;19.33;16.23;;;17.30;99.90;;;;;;5054478;28;20452;-71
2021/09/26 03:32:12;;;;;;;18.40;16.57;;;17.40;99.90;;;;;;5054880;28;20546;-71
2021/09/26 03:34:39;;;;;;;18.00;16.30;;;17.40;99.90;;;;;;5054540;28;20478;-70
2021/09/26 03:37:08;;;;;;;18.20;16.40;;;17.40;99.90;;;;;;5054217;28;20471;-70
2021/09/26 03:39:34;;;;;;;18.40;16.50;;;17.40;99.90;;;;;;5054977;28;20466;-71
2021/09/26 03:42:01;;;;;;;18.67;16.07;;;17.40;99.90;;;;;;5055017;28;20888;-71
2021/09/26 03:44:29;;;;;;;18.67;16.67;;;17.40;99.90;;;;;;5055378;28;20470;-71
2021/09/26 03:46:56;;;;;;;18.00;15.37;;;17.40;99.90;;;;;;5054821;28;20483;-71
2021/09/26 03:49:25;;;;;;;17.00;15.40;;;17.40;99.90;;;;;;5054672;28;20459;-71
2021/09/26 03:51:54;;;;;;;18.73;15.60;;;17.40;99.90;;;;;;5054531;28;20478;-72
2021/09/26 03:54:21;;;;;;;21.43;16.20;;;17.40;99.90;;;;;;5054967;28;20466;-71
2021/09/26 03:56:49;;;;;;;16.27;14.67;;;17.50;99.90;;;;;;5055464;28;20452;-71
2021/09/26 03:59:16;;;;;;;17.90;15.83;;;17.40;99.90;;;;;;5054453;28;20464;-71
2021/09/26 04:01:45;;;;;;;17.60;15.43;;;17.50;99.90;;;;;;5054343;28;20927;-71
2021/09/26 04:04:13;;;;;;;17.37;15.57;;;17.40;99.90;;;;;;5054758;28;20465;-71
2021/09/26 04:06:39;;;;;;;17.03;15.23;;;17.50;99.90;;;;;;5054485;28;20801;-71
2021/09/26 04:09:07;;;;;;;16.27;14.57;;;17.50;99.90;;;;;;5054567;28;20466;-71
2021/09/26 04:11:34;;;;;;;16.90;15.27;;;17.50;99.90;;;;;;5056578;28;20470;-71
2021/09/26 04:14:01;;;;;;;17.90;15.97;;;17.50;99.90;;;;;;5058107;28;20455;-71
2021/09/26 04:16:28;;;;;;;16.40;14.80;;;17.50;99.90;;;;;;5058162;28;20483;-71
2021/09/26 04:18:57;;;;;;;17.57;15.60;;;17.50;99.90;;;;;;5057661;28;20932;-71
2021/09/26 04:21:23;;;;;;;17.57;15.13;;;17.50;99.90;;;;;;5058031;28;20532;-71
2021/09/26 04:23:51;;;;;;;16.60;15.00;;;17.50;99.90;;;;;;5058424;28;20470;-71
2021/09/26 04:26:19;;;;;;;15.67;14.03;;;17.50;99.90;;;;;;5057630;28;20483;-71
2021/09/26 04:28:47;;;;;;;15.57;13.97;;;17.50;99.90;;;;;;5057711;28;20753;-71
2021/09/26 04:31:14;;;;;;;15.73;14.13;;;17.50;99.90;;;;;;5057683;28;20451;-71
2021/09/26 04:33:40;;;;;;;17.00;14.23;;;17.50;99.90;;;;;;5057476;28;20459;-71
2021/09/26 04:36:09;;;;;;;16.40;14.83;;;17.50;99.90;;;;;;5057252;28;20944;-71
2021/09/26 04:38:35;;;;;;;15.90;13.73;;;17.50;99.90;;;;;;5057648;28;20552;-71
2021/09/26 04:41:03;;;;;;;15.30;13.80;;;17.50;99.90;;;;;;5057467;28;20468;-71
2021/09/26 04:43:30;;;;;;;16.10;14.43;;;17.50;99.90;;;;;;5056815;28;20932;-71
2021/09/26 04:45:56;;;;;;;17.20;15.50;;;17.50;99.90;;;;;;5057213;28;20486;-71
2021/09/26 04:48:23;;;;;;;14.40;12.77;;;17.50;99.90;;;;;;5057012;28;20475;-71
2021/09/26 04:50:53;;;;;;;15.50;13.30;;;17.50;99.90;;;;;;5057068;28;20467;-71
2021/09/26 04:53:21;;;;;;;15.77;14.10;;;17.50;99.90;;;;;;5056849;28;20451;-71
2021/09/26 04:55:47;;;;;;;16.10;14.40;;;17.50;99.90;;;;;;5056789;28;20926;-71
2021/09/26 04:58:14;;;;;;;15.70;14.10;;;17.50;99.90;;;;;;5057003;28;20538;-71
2021/09/26 05:00:41;;;;;;;16.47;14.50;;;17.50;99.90;;;;;;5056537;28;20467;-71
2021/09/26 05:03:08;;;;;;;15.57;14.03;;;17.50;99.90;;;;;;5056748;28;20455;-71
2021/09/26 05:05:34;;;;;;;16.67;13.60;;;17.50;99.90;;;;;;5056693;28;20479;-71
2021/09/26 05:08:01;;;;;;;14.13;12.73;;;17.50;99.90;;;;;;5057162;28;20457;-71
2021/09/26 05:10:29;;;;;;;14.60;13.20;;;17.40;99.90;;;;;;5056694;28;20825;-71
2021/09/26 05:12:56;;;;;;;15.00;13.40;;;17.50;99.90;;;;;;5056523;28;20460;-71
2021/09/26 05:15:22;;;;;;;15.40;13.80;;;17.50;99.90;;;;;;5056445;28;20479;-71
2021/09/26 05:17:49;;;;;;;14.73;13.23;;;17.50;99.90;;;;;;5056831;28;20459;-71
2021/09/26 05:20:16;;;;;;;17.20;14.00;;;17.50;99.90;;;;;;5056452;28;20467;-71
2021/09/26 05:22:44;;;;;;;14.33;12.93;;;17.50;99.90;;;;;;5055529;28;20496;-71
2021/09/26 05:25:11;;;;;;;15.03;13.53;;;17.50;99.90;;;;;;5056497;28;20554;-71
2021/09/26 05:27:39;;;;;;;14.67;12.40;;;17.50;99.90;;;;;;5056122;28;20460;-71
2021/09/26 05:30:07;;;;;;;14.57;13.10;;;17.50;99.90;;;;;;5055840;28;20459;-71
2021/09/26 05:32:34;;;;;;;15.10;13.50;;;17.50;99.90;;;;;;5056274;28;20589;-72
2021/09/26 05:35:01;;;;;;;16.27;13.67;;;17.50;99.90;;;;;;5056208;28;20455;-71
2021/09/26 05:37:27;;;;;;;13.67;12.23;;;17.50;99.90;;;;;;5055758;28;20913;-71
2021/09/26 05:39:54;;;;;;;13.70;12.40;;;17.60;99.90;;;;;;5056236;28;20766;-71
2021/09/26 05:42:21;;;;;;;14.33;12.63;;;17.50;99.90;;;;;;5056617;28;20455;-71
2021/09/26 05:44:49;;;;;;;15.03;13.53;;;17.60;99.90;;;;;;5056186;28;20471;-71
2021/09/26 05:47:16;;;;;;;15.93;13.80;;;17.60;99.90;;;;;;5056216;28;20479;-72
2021/09/26 05:49:43;;;;;;;14.97;12.43;;;17.60;99.90;;;;;;5056685;28;20574;-72
2021/09/26 05:52:10;;;;;;;16.97;14.20;;;17.60;99.90;;;;;;5059966;28;20471;-72
2021/09/26 05:54:38;;;;;;;16.53;13.67;;;17.70;99.90;;;;;;5058838;28;20524;-72
2021/09/26 05:57:06;;;;;;;13.87;12.47;;;17.70;99.90;;;;;;5055671;28;20467;-72
2021/09/26 05:59:38;;;;;;;15.17;13.50;;;17.80;99.90;;;;;;5055905;28;20472;-71
2021/09/26 06:02:07;;;;;;;14.40;12.90;;;17.80;99.90;;;;;;5055544;28;20781;-70
2021/09/26 06:04:34;;;;;;;16.77;13.60;;;17.80;99.90;;;;;;5055712;28;20463;-70
2021/09/26 06:07:00;;;;;;;16.07;14.03;;;17.90;99.90;;;;;;5055432;28;20479;-71
2021/09/26 06:09:27;;;;;;;16.80;13.63;;;17.90;99.90;;;;;;5056339;28;20461;-70
2021/09/26 06:11:54;;;;;;;16.33;14.07;;;18.00;99.90;;;;;;5056294;28;20462;-72
2021/09/26 06:14:21;;;;;;;13.47;12.13;;;18.00;99.90;;;;;;5056360;28;20802;-72
2021/09/26 06:16:50;;;;;;;15.67;13.97;;;18.00;99.90;;;;;;5057808;28;20486;-71
2021/09/26 06:19:18;;;;;;;14.47;13.00;;;18.10;99.90;;;;;;5060427;28;20963;-71
2021/09/26 06:21:47;;;;;;;15.30;13.70;;;18.10;99.90;;;;;;5059940;28;20470;-71
2021/09/26 06:24:15;;;;;;;18.00;14.30;;;18.20;99.90;;;;;;5059556;28;20463;-71
2021/09/26 06:26:42;;;;;;;14.67;13.23;;;18.20;99.90;;;;;;5059089;28;20486;-71
2021/09/26 06:29:09;;;;;;;14.43;12.73;;;18.30;99.90;;;;;;5062190;28;20537;-71
2021/09/26 06:31:36;;;;;;;15.33;13.50;;;18.30;99.90;;;;;;5061710;28;20463;-71
2021/09/26 06:34:03;;;;;;;13.93;12.53;;;18.30;99.90;;;;;;5060360;28;20465;-71
2021/09/26 06:36:31;;;;;;;16.87;12.30;;;18.30;99.90;;;;;;5059742;28;20470;-72
2021/09/26 06:38:58;;;;;;;16.90;14.00;;;18.30;99.90;;;;;;5058326;28;20460;-71
2021/09/26 06:41:25;;;;;;;15.43;12.90;;;18.40;99.90;;;;;;5060883;28;20451;-72
2021/09/26 06:43:52;;;;;;;15.60;13.13;;;18.30;99.90;;;;;;5066789;28;20451;-71
2021/09/26 06:46:19;;;;;;;14.43;12.70;;;18.40;99.90;;;;;;5056522;28;20987;-73
2021/09/26 06:48:46;;;;;;;15.90;13.00;;;18.40;99.90;;;;;;5054721;28;20467;-71
2021/09/26 06:51:14;;;;;;;12.53;11.17;;;18.40;99.90;;;;;;5055046;28;20459;-71
2021/09/26 06:53:42;;;;;;;11.10;10.00;;;18.40;99.90;;;;;;5054608;28;20792;-71
2021/09/26 06:56:09;;;;;;;12.70;10.90;;;18.40;99.90;;;;;;5054939;28;20458;-71
2021/09/26 06:58:37;;;;;;;13.83;12.00;;;18.50;99.90;;;;;;5054635;28;20466;-71
2021/09/26 07:01:04;;;;;;;14.67;12.37;;;18.50;99.90;;;;;;5054675;28;20457;-71
2021/09/26 07:03:31;;;;;;;12.07;10.87;;;18.50;99.90;;;;;;5054682;28;20459;-71
2021/09/26 07:05:58;;;;;;;14.23;12.20;;;18.60;99.90;;;;;;5054250;28;20776;-71
2021/09/26 07:08:25;;;;;;;14.20;10.83;;;18.60;99.90;;;;;;5054258;28;20528;-71
2021/09/26 07:10:53;;;;;;;12.37;11.13;;;18.60;99.90;;;;;;5054602;28;20460;-70
2021/09/26 07:13:20;;;;;;;12.87;11.57;;;18.70;99.90;;;;;;5054603;28;20493;-72
2021/09/26 07:15:46;;;;;;;16.37;12.87;;;18.80;99.90;;;;;;5053692;28;20482;-72
2021/09/26 07:18:13;;;;;;;12.47;11.10;;;18.80;99.90;;;;;;5054083;28;20472;-72
2021/09/26 07:20:40;;;;;;;12.50;11.30;;;18.90;99.90;;;;;;5054166;28;20466;-72
2021/09/26 07:23:06;;;;;;;12.93;11.53;;;18.90;99.90;;;;;;5053638;28;20496;-72
2021/09/26 07:25:33;;;;;;;13.03;11.73;;;18.90;99.90;;;;;;5054439;28;20472;-71
2021/09/26 07:28:01;;;;;;;13.00;11.60;;;18.90;99.90;;;;;;5054284;28;20487;-72
2021/09/26 07:30:28;;;;;;;11.90;10.70;;;19.00;99.90;;;;;;5053972;28;20458;-72
2021/09/26 07:32:55;;;;;;;12.80;11.40;;;19.00;99.90;;;;;;5054387;28;20466;-71
2021/09/26 07:35:22;;;;;;;12.80;11.50;;;19.10;99.90;;;;;;5053864;28;20481;-71
2021/09/26 07:37:49;;;;;;;11.97;10.70;;;19.10;99.90;;;;;;5054298;28;20455;-71
2021/09/26 07:40:16;;;;;;;12.83;11.47;;;19.20;99.90;;;;;;5054322;28;20788;-70
2021/09/26 07:42:43;;;;;;;12.43;11.17;;;19.20;99.90;;;;;;5054138;28;20468;-72
2021/09/26 07:45:13;;;;;;;12.17;11.00;;;19.30;99.90;;;;;;5053687;28;20473;-71
2021/09/26 07:47:42;;;;;;;13.03;11.63;;;19.30;99.90;;;;;;5057452;28;20510;-72
2021/09/26 07:50:10;;;;;;;11.77;10.60;;;19.40;99.90;;;;;;5057397;28;20500;-72
2021/09/26 07:52:37;;;;;;;11.83;10.63;;;19.40;99.90;;;;;;5057664;28;20459;-72
2021/09/26 07:55:04;;;;;;;12.60;9.80;;;19.50;99.90;;;;;;5057715;28;20466;-74
2021/09/26 07:57:31;;;;;;;12.63;11.33;;;19.50;99.90;;;;;;5057404;28;20482;-71
2021/09/26 08:00:00;;;;;;;11.07;10.00;;;19.60;99.90;;;;;;5057267;28;20467;-71
2021/09/26 08:02:28;;;;;;;10.80;9.70;;;19.70;99.90;;;;;;5057004;28;20770;-71
2021/09/26 08:04:55;;;;;;;10.40;9.40;;;19.70;99.90;;;;;;5057696;28;20471;-71
2021/09/26 08:07:22;;;;;;;9.50;8.70;;;19.80;99.90;;;;;;5056752;28;20758;-72
2021/09/26 08:09:48;;;;;;;10.67;9.67;;;19.80;99.90;;;;;;5056088;28;20892;-72
2021/09/26 08:12:15;;;;;;;9.20;8.30;;;19.90;99.90;;;;;;5056847;28;20788;-72
2021/09/26 08:14:42;;;;;;;9.47;8.57;;;20.00;99.90;;;;;;5056430;28;20781;-71
2021/09/26 08:17:09;;;;;;;8.70;7.90;;;20.00;99.90;;;;;;5056891;28;20439;-71
2021/09/26 08:19:37;;;;;;;8.17;7.47;;;20.10;99.90;;;;;;5057328;28;20454;-71
2021/09/26 08:22:06;;;;;;;8.23;7.63;;;20.20;99.90;;;;;;5056707;28;20462;-71
2021/09/26 08:24:33;;;;;;;7.47;6.37;;;20.20;99.90;;;;;;5056882;28;20468;-71
2021/09/26 08:27:01;;;;;;;8.17;7.47;;;20.30;99.90;;;;;;5056400;28;20517;-71
2021/09/26 08:29:28;;;;;;;8.03;7.33;;;20.40;99.90;;;;;;5056757;28;20474;-71
2021/09/26 08:31:55;;;;;;;7.80;7.10;;;20.40;99.90;;;;;;5055681;28;20461;-71
2021/09/26 08:34:23;;;;;;;8.00;6.73;;;20.60;99.90;;;;;;5055947;28;20462;-71
2021/09/26 08:36:51;;;;;;;8.07;7.37;;;20.60;99.90;;;;;;5056125;28;20463;-72
2021/09/26 08:39:18;;;;;;;7.50;6.80;;;20.60;99.90;;;;;;5056301;28;20473;-72
2021/09/26 08:41:48;;;;;;;7.10;6.50;;;20.70;99.90;;;;;;5055869;28;20954;-71
2021/09/26 08:44:16;;;;;;;7.80;7.07;;;20.80;99.90;;;;;;5055920;28;20461;-72
2021/09/26 08:46:42;;;;;;;7.30;6.50;;;20.90;99.90;;;;;;5055718;28;20918;-71
2021/09/26 08:49:10;;;;;;;7.33;6.73;;;20.90;99.90;;;;;;5056122;28;20456;-71
2021/09/26 08:51:37;;;;;;;7.20;6.20;;;21.00;99.90;;;;;;5056018;28;20463;-71
2021/09/26 08:54:05;;;;;;;8.03;7.27;;;21.10;99.90;;;;;;5056203;28;20462;-72
2021/09/26 08:56:32;;;;;;;7.73;7.03;;;21.20;99.90;;;;;;5056150;28;20456;-72
2021/09/26 08:58:59;;;;;;;7.63;6.93;;;21.30;99.90;;;;;;5056097;28;20463;-72
2021/09/26 09:01:28;;;;;;;7.80;7.00;;;21.30;99.90;;;;;;5056325;28;20479;-72
2021/09/26 09:03:55;;;;;;;7.50;6.90;;;21.40;99.90;;;;;;5056264;28;20459;-72
2021/09/26 09:06:38;;;;;;;7.83;7.13;;;21.50;99.90;;;;;;5055673;28;20455;-74
2021/09/26 09:09:08;;;;;;;8.03;7.33;;;21.50;99.90;;;;;;5056128;28;20450;-72
2021/09/26 09:11:35;;;;;;;9.57;7.50;;;21.60;99.90;;;;;;5055976;28;20463;-72
2021/09/26 09:14:02;;;;;;;7.90;7.20;;;21.60;99.90;;;;;;5055428;28;20942;-71
2021/09/26 09:16:34;;;;;;;7.90;7.10;;;21.70;99.90;;;;;;5055931;28;20482;-72
2021/09/26 09:19:02;;;;;;;7.43;6.80;;;21.80;99.90;;;;;;5055406;28;20463;-71
2021/09/26 09:21:31;;;;;;;8.93;8.00;;;21.90;99.90;;;;;;5055314;28;20937;-72
2021/09/26 09:24:20;;;;;;;8.40;7.60;;;21.90;99.90;;;;;;5055288;28;20459;-71
2021/09/26 09:26:50;;;;;;;7.40;6.80;;;22.00;99.90;;;;;;5055244;28;20857;-72
2021/09/26 09:29:18;;;;;;;8.57;7.30;;;22.10;99.90;;;;;;5055816;28;20777;-71
2021/09/26 09:31:50;;;;;;;7.43;6.80;;;22.20;99.90;;;;;;5055899;28;20657;-71
2021/09/26 09:34:31;;;;;;;6.90;6.37;;;22.30;99.90;;;;;;5054778;28;20491;-72
2021/09/26 09:37:12;;;;;;;7.43;6.67;;;22.40;99.90;;;;;;5055127;28;20474;-71
2021/09/26 09:39:42;;;;;;;6.70;6.13;;;22.50;99.90;;;;;;5055251;28;20454;-71
2021/09/26 09:42:20;;;;;;;7.03;6.17;;;22.60;99.90;;;;;;5058593;28;20928;-72
2021/09/26 09:44:47;;;;;;;7.77;6.97;;;22.70;99.90;;;;;;5056873;28;20448;-71
2021/09/26 09:47:14;;;;;;;6.97;6.37;;;22.70;99.90;;;;;;5055414;28;20483;-71
2021/09/26 09:49:54;;;;;;;7.83;6.60;;;22.80;99.90;;;;;;5054974;28;20459;-72
2021/09/26 09:52:42;;;;;;;8.20;5.70;;;22.90;99.90;;;;;;5054821;28;20440;-71
2021/09/26 09:55:15;;;;;;;6.87;6.13;;;23.00;99.90;;;;;;5054808;28;20447;-72
2021/09/26 09:57:42;;;;;;;7.20;6.50;;;23.10;99.90;;;;;;5054645;28;20737;-72
2021/09/26 10:00:16;;;;;;;6.07;5.57;;;23.20;99.90;;;;;;5054274;28;20460;-71
2021/09/26 10:02:44;;;;;;;6.67;5.83;;;23.30;99.90;;;;;;5054588;28;20717;-72
2021/09/26 10:05:32;;;;;;;6.37;5.67;;;23.30;99.90;;;;;;5054336;28;20819;-72
2021/09/26 10:07:58;;;;;;;5.77;5.37;;;23.40;99.90;;;;;;5054302;28;20479;-71
2021/09/26 10:10:32;;;;;;;7.00;5.13;;;23.50;99.90;;;;;;5054578;28;20908;-71
2021/09/26 10:13:12;;;;;;;6.17;5.67;;;23.50;99.90;;;;;;5054543;28;20455;-71
2021/09/26 10:15:40;;;;;;;5.17;4.77;;;23.60;99.90;;;;;;5051884;28;20498;-71
2021/09/26 10:18:06;;;;;;;5.23;4.83;;;23.70;99.90;;;;;;5054480;28;20471;-71
2021/09/26 10:20:35;;;;;;;5.20;4.80;;;23.80;99.90;;;;;;5054149;28;20467;-73
2021/09/26 10:23:02;;;;;;;5.00;4.60;;;23.90;99.90;;;;;;5054687;28;20456;-72
2021/09/26 10:25:31;;;;;;;4.73;4.33;;;24.00;99.90;;;;;;5054443;28;20824;-72
2021/09/26 10:27:59;;;;;;;5.27;4.77;;;24.10;99.90;;;;;;5054084;28;20517;-72
2021/09/26 10:30:26;;;;;;;6.70;5.20;;;24.30;99.90;;;;;;5054663;28;20470;-72
2021/09/26 10:32:56;;;;;;;5.77;4.90;;;24.50;99.90;;;;;;5054453;28;20474;-72
2021/09/26 10:35:27;;;;;;;5.30;4.80;;;24.70;99.90;;;;;;5053934;28;20537;-72
2021/09/26 10:37:57;;;;;;;4.67;4.27;;;25.00;99.90;;;;;;5055908;28;20440;-72
2021/09/26 10:40:24;;;;;;;4.67;4.27;;;25.30;99.90;;;;;;5054030;28;20459;-71
2021/09/26 10:42:52;;;;;;;5.70;4.20;;;25.50;99.90;;;;;;5054120;28;20485;-73
2021/09/26 10:45:26;;;;;;;4.70;4.30;;;25.70;99.90;;;;;;5053615;28;20459;-72
2021/09/26 10:47:56;;;;;;;4.83;4.43;;;25.90;1.00;;;;;;5053518;28;20556;-73
2021/09/26 10:50:33;;;;;;;5.23;4.73;;;26.00;99.90;;;;;;5053117;28;20566;-73
2021/09/26 10:53:08;;;;;;;4.83;3.93;;;26.10;99.90;;;;;;5053433;28;20440;-72
2021/09/26 10:55:36;;;;;;;4.40;4.00;;;26.20;99.90;;;;;;5053357;28;20442;-72
2021/09/26 10:58:16;;;;;;;4.30;3.50;;;26.30;99.90;;;;;;5053897;28;20451;-71
2021/09/26 11:00:51;;;;;;;4.37;4.07;;;26.40;99.90;;;;;;5053076;28;20487;-72
2021/09/26 11:03:20;;;;;;;4.67;4.30;;;26.40;99.90;;;;;;5052745;28;20513;-72
2021/09/26 11:05:49;;;;;;;4.80;4.40;;;26.40;99.90;;;;;;5053156;28;20478;-72
2021/09/26 11:08:43;;;;;;;7.20;4.50;;;26.40;99.90;;;;;;5052571;28;20486;-72
2021/09/26 11:11:10;;;;;;;4.80;4.40;;;26.50;99.90;;;;;;5053074;28;20971;-73
2021/09/26 11:13:39;;;;;;;4.40;4.00;;;26.60;99.90;;;;;;5052936;28;20459;-73
2021/09/26 11:16:13;;;;;;;4.80;4.40;;;26.60;99.90;;;;;;5053798;28;20506;-72
2021/09/26 11:18:53;;;;;;;4.23;3.93;;;26.70;99.90;;;;;;5054290;28;20546;-71
2021/09/26 11:21:45;;;;;;;4.40;4.10;;;26.80;99.90;;;;;;5055172;28;20542;-72
2021/09/26 11:24:13;;;;;;;6.00;4.50;;;26.80;99.90;;;;;;5057352;28;20462;-72
2021/09/26 11:27:13;;;;;;;4.20;3.70;;;26.90;99.90;;;;;;5057442;28;20526;-72
2021/09/26 11:30:10;;;;;;;4.23;3.93;;;27.20;99.90;;;;;;5057453;28;20462;-72
2021/09/26 11:32:37;;;;;;;4.10;3.80;;;27.40;99.90;;;;;;5057577;28;20455;-72
2021/09/26 11:35:08;;;;;;;4.00;3.70;;;27.60;99.90;;;;;;5058020;28;20586;-72
2021/09/26 11:37:53;;;;;;;4.40;4.10;;;27.70;99.90;;;;;;5057571;28;20432;-71
2021/09/26 11:40:28;;;;;;;4.10;3.70;;;27.80;99.90;;;;;;5057021;28;20522;-72
2021/09/26 11:42:57;;;;;;;5.10;4.70;;;27.90;97.40;;;;;;5057102;28;20900;-73
2021/09/26 11:45:32;;;;;;;4.87;4.37;;;28.10;93.30;;;;;;5057296;28;20455;-72
2021/09/26 11:48:01;;;;;;;4.40;4.00;;;28.40;57.30;;;;;;5056796;28;20991;-71
2021/09/26 11:50:31;;;;;;;3.73;3.40;;;28.70;41.10;;;;;;5057432;28;20557;-71
2021/09/26 11:52:58;;;;;;;5.03;4.53;;;29.20;32.30;;;;;;5057645;28;20444;-72
2021/09/26 11:55:25;;;;;;;4.07;3.77;;;29.80;21.60;;;;;;5057656;28;20539;-71
2021/09/26 11:57:56;;;;;;;4.73;4.00;;;30.40;3.00;;;;;;5056914;28;20452;-72
2021/09/26 12:00:25;;;;;;;4.57;4.23;;;31.00;1.00;;;;;;5057237;28;20463;-71
2021/09/26 12:02:53;;;;;;;4.30;3.90;;;31.40;1.00;;;;;;5056620;28;20694;-72
2021/09/26 12:05:34;;;;;;;4.20;3.80;;;31.90;1.00;;;;;;5056573;28;20467;-73
2021/09/26 12:08:02;;;;;;;6.17;4.00;;;32.10;1.00;;;;;;5057080;28;20583;-73
2021/09/26 12:10:29;;;;;;;3.80;3.50;;;32.40;1.00;;;;;;5056933;28;20528;-73
2021/09/26 12:12:56;;;;;;;4.63;4.23;;;32.80;1.00;;;;;;5056511;28;21003;-73
2021/09/26 12:15:27;;;;;;;4.50;4.10;;;33.10;1.00;;;;;;5056846;28;20908;-72
2021/09/26 12:17:58;;;;;;;3.40;3.07;;;33.50;1.00;;;;;;5056651;28;20478;-71
2021/09/26 12:20:26;;;;;;;4.30;4.00;;;33.80;1.00;;;;;;5056398;28;20466;-73
2021/09/26 12:22:58;;;;;;;4.40;4.00;;;34.00;1.00;;;;;;5056751;28;20804;-73
2021/09/26 12:25:30;;;;;;;4.10;3.53;;;34.40;1.00;;;;;;5057163;28;20451;-72
2021/09/26 12:28:01;;;;;;;4.30;4.00;;;34.70;1.00;;;;;;5056380;28;20479;-73
2021/09/26 12:30:31;;;;;;;4.00;3.50;;;34.70;1.00;;;;;;5056325;28;20772;-72
2021/09/26 12:33:02;;;;;;;3.80;3.50;;;34.70;1.00;;;;;;5055505;28;20462;-72
2021/09/26 12:35:33;;;;;;;4.20;3.90;;;34.50;1.00;;;;;;5056514;28;20497;-73
2021/09/26 12:38:07;;;;;;;4.00;3.70;;;33.90;1.00;;;;;;5056682;28;20825;-72
2021/09/26 12:40:38;;;;;;;3.70;3.40;;;33.80;1.00;;;;;;5055891;28;20468;-71
2021/09/26 12:43:06;;;;;;;4.20;3.83;;;34.20;1.00;;;;;;5055824;28;20444;-73
2021/09/26 12:45:39;;;;;;;6.23;3.73;;;34.60;1.00;;;;;;5055945;28;20790;-73
2021/09/26 12:48:07;;;;;;;3.90;3.50;;;35.00;1.00;;;;;;5056276;28;20562;-72